Council, ID (83612)

6:26 AM MST on February 07, 2016 (GMT -0700)
RAWS | | Change Station
CLOSE
Current Station
Personal Weather Station
Location: Council, ID
Elevation: 3804 ft
Nearby Weather Stations

Elev 3804 ft 44.85 °N, 116.43 °W | Updated 13 hours ago

Mostly Cloudy
Mostly Cloudy
15 °F
Feels Like 15 °F
N
2
Wind Variable Wind from NE
Gusts mph

Today
High -- | Low -- °F
--% Chance of Precip.
Yesterday
High -- | Low -- °F
Precip. -- in
Pressure 30.62 in
Visibility 10.0 miles
Clouds Few 100 ft
Dew Point 15 °F
Humidity 100%
Rainfall in
Snow Depth Not available.
7:58 AM 6:02 PM
Waning Crescent, 2% visible
METAR KMYL 071251Z AUTO 00000KT 10SM FEW001 M10/M12 A3047 RMK AO2 SLP369 T11001122
Pressure 30.62 in
Visibility 10.0 miles
Clouds Few 100 ft
Dew Point 15 °F
Humidity 100%
Rainfall in
Snow Depth Not available.
7:58 AM 6:02 PM
Waning Crescent, 2% visible
METAR KMYL 071251Z AUTO 00000KT 10SM FEW001 M10/M12 A3047 RMK AO2 SLP369 T11001122

10-Day Weather Forecast

Almanac

Astronomy

Feb. 07, 2016 Rise Set
Actual Time
Civil Twilight
Nautical Twilight
Astronomical Twilight
Moon
Length of Visible Light
Length of Day
Tomorrow will be .
, % of the Moon is Illuminated

Today's Extremes

State Highs State Lows

Community

WunderPhotos

Upload Photos

1,891,190 photos uploaded!

WunderBlog® & News

Nearby

Air Quality

  Air Quality AQ Index Pollutant
Not available.

Snow Depth

Station Depth Elevation

Earthquake Activity

City Distance Mag. Time & Date
Minimum magnitude displayed is 2.5.

Coastal Water Temperatures

Place Temperature

Stations

Nearby Weather Stations

Station Location Temp. Windchill Dew Point Humidity Wind Precip. Elev Updated Type
                   

Watches & Warnings

There are currently no watches in effect.